createdAt,value
2022-08-22T00:00:45.577Z,85.74
2022-08-22T00:02:57.282Z,83.05
2022-08-22T00:03:06.939Z,85.28
2022-08-22T00:03:23.662Z,85.78
2022-08-22T00:06:03.217Z,85.84
2022-08-22T00:08:49.600Z,85.89
2022-08-22T00:11:44.631Z,86.00
2022-08-22T00:14:38.632Z,86.01
2022-08-22T00:17:36.315Z,86.18
2022-08-22T00:20:28.020Z,86.15
2022-08-22T00:23:08.576Z,86.05
2022-08-22T00:25:47.673Z,86.08
2022-08-22T00:28:17.354Z,86.02
2022-08-22T00:31:28.562Z,85.97
2022-08-22T00:34:03.009Z,85.97
2022-08-22T00:36:47.877Z,86.07
2022-08-22T00:39:28.827Z,86.16
2022-08-22T00:42:29.562Z,86.24
2022-08-22T00:45:31.552Z,86.20
2022-08-22T00:48:27.185Z,86.27
2022-08-22T00:51:01.515Z,86.27
2022-08-22T00:53:51.052Z,86.25
2022-08-22T00:56:37.648Z,86.24
2022-08-22T00:59:51.097Z,86.24
2022-08-22T01:02:32.006Z,86.30
2022-08-22T01:05:11.867Z,86.38
2022-08-22T01:08:12.221Z,86.29
2022-08-22T01:11:13.435Z,86.37
2022-08-22T01:13:44.428Z,86.42
2022-08-22T01:16:30.908Z,86.35
2022-08-22T01:19:32.704Z,86.24
2022-08-22T01:22:18.339Z,86.23
2022-08-22T01:25:40.782Z,86.24
2022-08-22T01:28:54.710Z,86.28
2022-08-22T01:31:42.401Z,86.36
2022-08-22T01:34:56.800Z,86.35
2022-08-22T01:38:01.333Z,86.25
2022-08-22T01:40:47.610Z,86.23
2022-08-22T01:43:59.636Z,86.27
2022-08-22T01:46:31.886Z,86.45
2022-08-22T01:49:18.329Z,86.42
2022-08-22T01:51:53.331Z,86.61
2022-08-22T01:54:36.676Z,86.86
2022-08-22T01:57:08.803Z,87.17
2022-08-22T01:59:42.991Z,87.15
2022-08-22T02:02:32.557Z,87.23
2022-08-22T02:05:23.720Z,87.37
2022-08-22T02:08:19.319Z,87.44
2022-08-22T02:11:04.379Z,87.49
2022-08-22T02:13:45.999Z,87.71
2022-08-22T02:16:18.702Z,87.71
2022-08-22T02:18:57.319Z,87.73
2022-08-22T02:21:44.888Z,87.70
2022-08-22T02:24:25.801Z,87.78
2022-08-22T02:27:11.875Z,87.84
2022-08-22T02:29:48.341Z,88.05
2022-08-22T02:32:25.259Z,88.02
2022-08-22T02:35:03.776Z,88.10
2022-08-22T02:37:37.748Z,88.16
2022-08-22T02:40:09.252Z,88.17
2022-08-22T02:42:52.343Z,88.10
2022-08-22T02:45:38.857Z,88.15
2022-08-22T02:48:28.587Z,88.26
2022-08-22T02:50:59.364Z,88.45
2022-08-22T02:54:04.492Z,88.52
2022-08-22T02:56:46.375Z,88.64
2022-08-22T02:59:20.300Z,88.68
2022-08-22T03:01:49.759Z,88.82
2022-08-22T03:04:21.478Z,89.05
2022-08-22T03:07:22.148Z,89.20
2022-08-22T03:10:22.969Z,89.27
2022-08-22T03:13:08.240Z,89.43
2022-08-22T03:15:48.512Z,89.67
2022-08-22T03:18:30.255Z,89.49
2022-08-22T03:21:11.712Z,89.38
2022-08-22T03:23:56.934Z,89.48
2022-08-22T03:26:51.820Z,89.62
2022-08-22T03:29:46.301Z,89.74
2022-08-22T03:32:21.459Z,89.88
2022-08-22T03:34:57.125Z,89.94
2022-08-22T03:37:44.113Z,89.91
2022-08-22T03:40:45.943Z,90.01
2022-08-22T03:43:51.683Z,90.14
2022-08-22T03:46:22.682Z,90.10
2022-08-22T03:49:11.630Z,90.11
2022-08-22T03:51:45.066Z,90.21
2022-08-22T03:54:44.432Z,90.22
2022-08-22T03:57:40.077Z,90.20
2022-08-22T04:00:39.183Z,90.02
2022-08-22T04:03:46.491Z,90.19
2022-08-22T04:06:44.853Z,90.31
2022-08-22T04:09:42.857Z,90.26
2022-08-22T04:12:20.028Z,90.33
2022-08-22T04:14:56.287Z,90.41
2022-08-22T04:17:39.105Z,90.41
2022-08-22T04:20:25.607Z,90.53
2022-08-22T04:23:12.697Z,90.54
2022-08-22T04:25:57.870Z,90.75
2022-08-22T04:28:43.418Z,90.92
2022-08-22T04:31:21.508Z,90.95
2022-08-22T04:34:04.849Z,91.13
2022-08-22T04:36:46.018Z,91.03
2022-08-22T04:39:25.957Z,90.97
2022-08-22T04:42:32.382Z,90.82
2022-08-22T04:45:26.562Z,90.64
2022-08-22T04:48:06.976Z,90.33
2022-08-22T04:51:05.728Z,90.44
2022-08-22T04:54:02.643Z,90.16
2022-08-22T04:56:50.133Z,90.29
2022-08-22T04:59:21.984Z,90.54
2022-08-22T05:02:07.155Z,90.81
2022-08-22T05:04:40.423Z,90.81
2022-08-22T05:07:18.772Z,90.95
2022-08-22T05:09:54.251Z,90.95
2022-08-22T05:12:31.768Z,90.94
2022-08-22T05:15:07.230Z,91.02
2022-08-22T05:17:40.489Z,90.99
2022-08-22T05:20:14.076Z,91.84
2022-08-22T05:22:48.387Z,91.04
2022-08-22T05:25:21.532Z,91.66
2022-08-22T05:27:56.426Z,86.11
2022-08-22T05:30:31.245Z,85.57
2022-08-22T05:33:04.847Z,82.72
2022-08-22T05:35:44.970Z,81.78
2022-08-22T05:38:20.780Z,80.76
2022-08-22T05:40:57.592Z,81.35
2022-08-22T05:43:27.169Z,80.55
2022-08-22T05:45:58.391Z,79.42
2022-08-22T05:48:37.826Z,79.06
2022-08-22T05:51:18.858Z,78.72
2022-08-22T05:53:53.480Z,78.40
2022-08-22T05:56:34.438Z,77.89
2022-08-22T05:59:26.901Z,77.25
2022-08-22T06:02:00.191Z,78.97
2022-08-22T06:04:31.692Z,78.80
2022-08-22T06:07:09.659Z,79.94
2022-08-22T06:10:22.987Z,83.81
2022-08-22T06:13:01.698Z,85.95
2022-08-22T06:16:11.664Z,87.37
2022-08-22T06:18:42.343Z,88.58
2022-08-22T06:21:22.266Z,89.20
2022-08-22T06:23:56.725Z,89.45
2022-08-22T06:26:30.904Z,89.63
2022-08-22T06:29:01.513Z,89.77
2022-08-22T06:31:32.215Z,89.62
2022-08-22T06:34:12.053Z,89.34
2022-08-22T06:36:44.312Z,89.33
2022-08-22T06:39:24.179Z,89.16
2022-08-22T06:42:05.950Z,88.77
2022-08-22T06:44:43.117Z,88.77
2022-08-22T06:47:17.404Z,88.54
2022-08-22T06:49:46.021Z,88.09
2022-08-22T06:52:21.216Z,87.12
2022-08-22T06:55:00.372Z,85.51
2022-08-22T06:57:48.539Z,84.21
2022-08-22T07:00:18.190Z,83.68
2022-08-22T07:03:12.075Z,83.03
2022-08-22T07:05:42.913Z,81.40
2022-08-22T07:08:19.418Z,80.80
2022-08-22T07:11:16.443Z,79.82
2022-08-22T07:13:54.872Z,77.08
2022-08-22T07:16:39.335Z,76.64
2022-08-22T07:19:09.365Z,76.51
2022-08-22T07:21:47.201Z,76.97
2022-08-22T07:24:20.678Z,76.07
2022-08-22T07:27:00.310Z,76.56
2022-08-22T07:29:54.076Z,77.06
2022-08-22T07:32:33.940Z,76.62
2022-08-22T07:35:28.860Z,76.83
2022-08-22T07:38:05.878Z,76.80
2022-08-22T07:40:55.012Z,77.21
2022-08-22T07:43:25.599Z,76.98
2022-08-22T07:46:16.467Z,75.46
2022-08-22T07:49:14.395Z,75.32
2022-08-22T07:52:08.325Z,74.85
2022-08-22T07:54:57.935Z,73.93
2022-08-22T07:58:01.572Z,73.82
2022-08-22T08:00:41.354Z,73.17
2022-08-22T08:03:10.170Z,72.26
2022-08-22T08:05:42.103Z,71.44
2022-08-22T08:08:28.297Z,70.08
2022-08-22T08:10:59.213Z,67.51
2022-08-22T08:13:35.329Z,66.12
2022-08-22T08:16:07.568Z,64.45
2022-08-22T08:18:37.272Z,64.21
2022-08-22T08:21:09.101Z,64.86
2022-08-22T08:23:46.460Z,66.40
2022-08-22T08:26:21.121Z,65.15
2022-08-22T08:28:52.089Z,63.56
2022-08-22T08:31:31.879Z,63.67
2022-08-22T08:34:07.715Z,62.50
2022-08-22T08:36:48.363Z,61.89
2022-08-22T08:39:36.827Z,63.20
2022-08-22T08:42:05.122Z,61.66
2022-08-22T08:44:37.457Z,60.80
2022-08-22T08:47:08.701Z,61.49
2022-08-22T08:49:59.911Z,61.43
2022-08-22T08:52:54.811Z,62.08
2022-08-22T08:55:54.265Z,61.62
2022-08-22T08:58:35.421Z,62.22
2022-08-22T09:01:29.753Z,61.10
2022-08-22T09:04:21.137Z,61.44
2022-08-22T09:07:19.725Z,61.27
2022-08-22T09:10:08.029Z,60.78
2022-08-22T09:12:56.443Z,61.43
2022-08-22T09:15:41.664Z,61.99
2022-08-22T09:18:24.593Z,62.06
2022-08-22T09:21:27.950Z,62.01
2022-08-22T09:24:46.667Z,60.53
2022-08-22T09:27:24.492Z,60.72
2022-08-22T09:30:02.399Z,59.87
2022-08-22T09:32:52.215Z,60.80
2022-08-22T09:35:46.453Z,60.14
2022-08-22T09:38:32.043Z,59.23
2022-08-22T09:41:47.179Z,58.48
2022-08-22T09:44:39.455Z,58.37
2022-08-22T09:47:32.859Z,58.24
2022-08-22T09:50:17.154Z,58.52
2022-08-22T09:53:07.809Z,58.84
2022-08-22T09:55:51.866Z,58.79
2022-08-22T09:58:25.684Z,58.97
2022-08-22T10:01:00.600Z,59.53
2022-08-22T10:04:00.630Z,59.60
2022-08-22T10:06:39.232Z,57.68
2022-08-22T10:09:24.206Z,57.61
2022-08-22T10:12:12.791Z,57.37
2022-08-22T10:15:15.162Z,56.70
2022-08-22T10:17:57.914Z,56.78
2022-08-22T10:20:32.289Z,54.02
2022-08-22T10:23:18.413Z,52.62
2022-08-22T10:25:55.170Z,54.29
2022-08-22T10:28:39.416Z,54.92
2022-08-22T10:31:13.453Z,55.05
2022-08-22T10:34:03.958Z,55.18
2022-08-22T10:37:10.335Z,53.48
2022-08-22T10:39:57.856Z,52.32
2022-08-22T10:42:40.192Z,52.39
2022-08-22T10:45:36.048Z,52.40
2022-08-22T10:48:11.515Z,53.09
2022-08-22T10:50:53.070Z,52.47
2022-08-22T10:53:37.135Z,50.68
2022-08-22T10:56:11.659Z,52.40
2022-08-22T10:58:51.326Z,53.33
2022-08-22T11:01:37.439Z,53.35
2022-08-22T11:04:28.354Z,53.19
2022-08-22T11:07:14.395Z,52.39
2022-08-22T11:09:44.441Z,50.35
2022-08-22T11:12:20.853Z,49.90
2022-08-22T11:15:28.312Z,52.83
2022-08-22T11:18:33.765Z,51.36
2022-08-22T11:21:11.050Z,50.77
2022-08-22T11:24:34.630Z,51.56
2022-08-22T11:27:20.889Z,52.14
2022-08-22T11:30:36.353Z,51.91
2022-08-22T11:33:46.353Z,51.08
2022-08-22T11:36:30.834Z,51.30
2022-08-22T11:39:32.615Z,51.07
2022-08-22T11:42:26.038Z,49.14
2022-08-22T11:45:01.004Z,49.35
2022-08-22T11:47:39.987Z,48.99
2022-08-22T11:50:29.490Z,47.99
2022-08-22T11:53:15.588Z,48.41
2022-08-22T11:56:14.076Z,47.20
2022-08-22T11:59:01.670Z,47.60
2022-08-22T12:01:40.972Z,48.38
2022-08-22T12:04:17.443Z,48.03
2022-08-22T12:06:51.619Z,47.56
2022-08-22T12:09:57.940Z,47.39
2022-08-22T12:12:45.743Z,47.33
2022-08-22T12:15:26.505Z,47.66
2022-08-22T12:18:09.218Z,48.79
2022-08-22T12:21:05.008Z,48.02
2022-08-22T12:24:19.406Z,47.97
2022-08-22T12:27:14.631Z,49.18
2022-08-22T12:30:35.613Z,48.09
2022-08-22T12:33:10.034Z,48.76
2022-08-22T12:36:06.484Z,48.48
2022-08-22T12:39:02.132Z,49.38
2022-08-22T12:41:48.625Z,48.38
2022-08-22T12:44:31.417Z,48.52
2022-08-22T12:47:50.573Z,47.87
2022-08-22T12:50:39.640Z,46.10
2022-08-22T12:53:20.098Z,45.59
2022-08-22T12:56:00.992Z,46.11
2022-08-22T12:59:10.544Z,45.22
2022-08-22T13:01:49.176Z,46.04
2022-08-22T13:04:33.268Z,44.80
2022-08-22T13:07:16.186Z,44.70
2022-08-22T13:09:55.121Z,44.63
2022-08-22T13:12:59.465Z,44.68
2022-08-22T13:15:36.091Z,44.57
2022-08-22T13:18:29.366Z,44.49
2022-08-22T13:21:04.415Z,44.82
2022-08-22T13:23:48.524Z,45.45
2022-08-22T13:26:33.163Z,46.14
2022-08-22T13:29:39.389Z,47.19
2022-08-22T13:32:20.695Z,47.81
2022-08-22T13:34:58.757Z,49.18
2022-08-22T13:37:41.184Z,49.67
2022-08-22T13:40:29.611Z,50.27
2022-08-22T13:43:11.238Z,50.67
2022-08-22T13:45:41.679Z,50.77
2022-08-22T13:48:13.026Z,49.62
2022-08-22T13:51:00.053Z,49.09
2022-08-22T13:53:49.361Z,49.83
2022-08-22T13:57:00.736Z,50.03
2022-08-22T13:59:51.827Z,49.72
2022-08-22T14:02:45.756Z,49.09
2022-08-22T14:05:23.966Z,48.75
2022-08-22T14:08:22.830Z,48.89
2022-08-22T14:11:06.763Z,47.75
2022-08-22T14:13:56.612Z,48.41
2022-08-22T14:16:34.323Z,49.15
2022-08-22T14:19:08.223Z,48.95
2022-08-22T14:21:40.920Z,49.88
2022-08-22T14:24:21.176Z,49.05
2022-08-22T14:27:07.941Z,47.12
2022-08-22T14:30:12.664Z,47.20
2022-08-22T14:32:49.687Z,46.58
2022-08-22T14:35:35.303Z,45.99
2022-08-22T14:38:39.403Z,48.92
2022-08-22T14:41:56.035Z,49.26
2022-08-22T14:44:39.308Z,48.23
2022-08-22T14:47:54.233Z,48.66
2022-08-22T14:50:59.039Z,48.45
2022-08-22T14:53:33.477Z,48.48
2022-08-22T14:56:11.309Z,47.37
2022-08-22T14:58:57.439Z,47.00
2022-08-22T15:01:29.936Z,47.15
2022-08-22T15:04:11.266Z,46.85
2022-08-22T15:06:47.846Z,46.26
2022-08-22T15:09:56.578Z,46.19
2022-08-22T15:12:40.448Z,46.18
2022-08-22T15:15:26.440Z,46.38
2022-08-22T15:17:54.623Z,45.95
2022-08-22T15:20:36.370Z,45.99
2022-08-22T15:23:20.503Z,45.71
2022-08-22T15:26:13.141Z,46.20
2022-08-22T15:28:53.245Z,46.60
2022-08-22T15:31:22.848Z,47.00
2022-08-22T15:33:52.005Z,46.86
2022-08-22T15:36:25.615Z,46.63
2022-08-22T15:39:15.826Z,46.13
2022-08-22T15:41:48.885Z,45.89
2022-08-22T15:44:33.075Z,46.21
2022-08-22T15:47:27.657Z,46.22
2022-08-22T15:50:05.501Z,46.34
2022-08-22T15:52:59.127Z,46.37
2022-08-22T15:55:34.446Z,46.41
2022-08-22T15:58:21.982Z,46.94
2022-08-22T16:01:19.263Z,47.68
2022-08-22T16:04:02.221Z,47.88
2022-08-22T16:06:46.844Z,47.77
2022-08-22T16:09:38.736Z,47.81
2022-08-22T16:12:24.562Z,47.60
2022-08-22T16:14:54.056Z,47.96
2022-08-22T16:17:30.706Z,49.40
2022-08-22T16:20:19.473Z,48.64
2022-08-22T16:23:10.152Z,49.75
2022-08-22T16:25:55.414Z,47.93
2022-08-22T16:28:57.862Z,47.53
2022-08-22T16:31:49.255Z,49.54
2022-08-22T16:34:17.032Z,49.40
2022-08-22T16:36:50.211Z,50.39
2022-08-22T16:39:23.901Z,50.81
2022-08-22T16:42:16.358Z,50.29
2022-08-22T16:44:48.536Z,50.46
2022-08-22T16:47:30.210Z,50.66
2022-08-22T16:50:04.687Z,50.36
2022-08-22T16:52:33.349Z,50.52
2022-08-22T16:55:30.353Z,51.16
2022-08-22T16:58:08.021Z,50.61
2022-08-22T17:01:10.974Z,50.60
2022-08-22T17:04:16.989Z,50.35
2022-08-22T17:07:08.025Z,49.89
2022-08-22T17:10:52.924Z,50.79
2022-08-22T17:13:35.655Z,51.89
2022-08-22T17:16:31.576Z,52.11
2022-08-22T17:19:28.737Z,52.18
2022-08-22T17:22:18.901Z,49.78
2022-08-22T17:24:58.227Z,46.36
2022-08-22T17:27:35.108Z,46.80
2022-08-22T17:30:27.063Z,46.70
2022-08-22T17:33:17.003Z,47.26
2022-08-22T17:36:02.980Z,47.52
2022-08-22T17:38:43.599Z,48.00
2022-08-22T17:41:29.179Z,48.38
2022-08-22T17:44:28.551Z,51.03
2022-08-22T17:47:11.534Z,52.10
2022-08-22T17:50:05.575Z,52.83
2022-08-22T17:52:51.055Z,53.26
2022-08-22T17:55:25.545Z,53.45
2022-08-22T17:58:13.100Z,54.38
2022-08-22T18:01:35.710Z,54.35
2022-08-22T18:04:10.648Z,54.72
2022-08-22T18:06:56.230Z,54.72
2022-08-22T18:09:47.664Z,54.76
2022-08-22T18:12:44.333Z,54.64
2022-08-22T18:15:28.906Z,54.61
2022-08-22T18:18:06.973Z,54.68
2022-08-22T18:21:01.029Z,54.74
2022-08-22T18:24:00.683Z,55.37
2022-08-22T18:26:28.659Z,55.93
2022-08-22T18:29:06.798Z,56.15
2022-08-22T18:31:46.385Z,56.48
2022-08-22T18:34:32.397Z,56.90
2022-08-22T18:37:35.811Z,57.37
2022-08-22T18:40:14.000Z,57.68
2022-08-22T18:42:51.809Z,58.03
2022-08-22T18:45:46.079Z,58.43
2022-08-22T18:48:34.528Z,58.51
2022-08-22T18:51:24.413Z,58.86
2022-08-22T18:54:04.894Z,58.65
2022-08-22T18:56:50.352Z,59.01
2022-08-22T18:59:55.118Z,59.80
2022-08-22T19:02:41.941Z,60.62
2022-08-22T19:05:13.820Z,61.29
2022-08-22T19:08:21.820Z,61.88
2022-08-22T19:11:38.264Z,62.59
2022-08-22T19:14:17.055Z,63.33
2022-08-22T19:17:16.805Z,63.97
2022-08-22T19:20:06.996Z,64.38
2022-08-22T19:22:36.844Z,64.90
2022-08-22T19:25:15.339Z,65.15
2022-08-22T19:27:54.576Z,65.48
2022-08-22T19:30:41.021Z,65.88
2022-08-22T19:33:38.708Z,66.21
2022-08-22T19:36:12.296Z,66.71
2022-08-22T19:39:08.871Z,67.02
2022-08-22T19:41:41.445Z,67.30
2022-08-22T19:44:12.705Z,67.49
2022-08-22T19:46:43.662Z,67.86
2022-08-22T19:49:29.466Z,68.21
2022-08-22T19:52:24.715Z,68.65
2022-08-22T19:55:18.020Z,69.00
2022-08-22T19:57:52.162Z,69.23
2022-08-22T20:00:23.411Z,69.48
2022-08-22T20:02:58.504Z,69.88
2022-08-22T20:05:41.732Z,70.19
2022-08-22T20:08:42.759Z,70.41
2022-08-22T20:11:38.906Z,71.03
2022-08-22T20:14:33.585Z,71.30
2022-08-22T20:17:32.949Z,71.51
2022-08-22T20:20:24.036Z,71.48
2022-08-22T20:23:12.245Z,71.67
2022-08-22T20:25:52.858Z,71.96
2022-08-22T20:28:44.451Z,72.25
2022-08-22T20:31:22.118Z,72.31
2022-08-22T20:33:57.559Z,72.32
2022-08-22T20:36:28.585Z,72.79
2022-08-22T20:39:10.858Z,72.57
2022-08-22T20:41:46.598Z,72.68
2022-08-22T20:44:31.668Z,72.86
2022-08-22T20:47:10.275Z,73.00
2022-08-22T20:49:45.757Z,73.17
2022-08-22T20:52:35.096Z,73.41
2022-08-22T20:55:02.984Z,73.60
2022-08-22T20:57:32.099Z,73.62
2022-08-22T21:00:11.637Z,73.83
2022-08-22T21:02:51.789Z,73.93
2022-08-22T21:05:23.998Z,74.33
2022-08-22T21:08:20.883Z,74.37
2022-08-22T21:11:32.924Z,74.59
2022-08-22T21:14:16.951Z,74.94
2022-08-22T21:16:44.956Z,75.18
2022-08-22T21:19:25.053Z,75.15
2022-08-22T21:21:55.649Z,75.23
2022-08-22T21:24:27.321Z,75.49
2022-08-22T21:27:03.392Z,75.64
2022-08-22T21:29:42.806Z,76.05
2022-08-22T21:32:13.690Z,76.15
2022-08-22T21:34:45.386Z,76.35
2022-08-22T21:37:16.847Z,76.42
2022-08-22T21:39:48.903Z,76.69
2022-08-22T21:42:36.543Z,76.89
2022-08-22T21:45:27.168Z,77.02
2022-08-22T21:47:55.554Z,77.12
2022-08-22T21:50:23.666Z,77.51
2022-08-22T21:52:54.448Z,77.45
2022-08-22T21:55:31.769Z,77.69
2022-08-22T21:58:35.750Z,77.81
2022-08-22T22:01:31.958Z,77.95
2022-08-22T22:04:00.925Z,78.31
2022-08-22T22:06:28.889Z,78.30
2022-08-22T22:08:56.794Z,78.55
2022-08-22T22:11:24.764Z,78.43
2022-08-22T22:13:53.137Z,78.65
2022-08-22T22:16:26.031Z,78.84
2022-08-22T22:18:54.280Z,79.22
2022-08-22T22:21:22.371Z,79.43
2022-08-22T22:23:50.680Z,79.91
2022-08-22T22:26:19.494Z,80.32
2022-08-22T22:28:48.633Z,80.40
2022-08-22T22:31:18.484Z,80.35
2022-08-22T22:33:46.793Z,80.61
2022-08-22T22:36:25.136Z,80.41
2022-08-22T22:38:53.826Z,80.72
2022-08-22T22:41:25.932Z,81.09
2022-08-22T22:43:55.179Z,81.08
2022-08-22T22:46:23.788Z,81.13
2022-08-22T22:48:51.818Z,81.12
2022-08-22T22:51:19.852Z,81.16
2022-08-22T22:53:47.761Z,81.65
2022-08-22T22:56:21.530Z,81.75
2022-08-22T22:59:00.745Z,81.64
2022-08-22T23:01:31.686Z,82.08
2022-08-22T23:04:05.504Z,82.30
2022-08-22T23:06:35.449Z,82.36
2022-08-22T23:09:03.688Z,82.25
2022-08-22T23:11:32.315Z,82.10
2022-08-22T23:14:02.748Z,82.65
2022-08-22T23:16:35.197Z,82.77
2022-08-22T23:19:09.380Z,82.84
2022-08-22T23:21:37.684Z,82.82
2022-08-22T23:24:06.924Z,83.03
2022-08-22T23:26:36.047Z,83.27
2022-08-22T23:29:06.048Z,83.32
2022-08-22T23:31:41.595Z,83.36
2022-08-22T23:34:12.379Z,83.39
2022-08-22T23:36:42.459Z,83.76
2022-08-22T23:39:12.411Z,83.68
2022-08-22T23:41:41.242Z,83.87
2022-08-22T23:44:13.655Z,83.87
2022-08-22T23:46:43.031Z,84.17
2022-08-22T23:49:11.886Z,83.85
2022-08-22T23:51:40.064Z,84.14
2022-08-22T23:54:09.078Z,84.08
2022-08-22T23:56:40.295Z,84.45
2022-08-22T23:59:13.060Z,84.34
